createdAt,value
2022-11-29T00:02:18.804Z,43.23
2022-11-29T00:04:55.770Z,43.47
2022-11-29T00:07:30.490Z,39.00
2022-11-29T00:10:01.690Z,40.53
2022-11-29T00:12:33.896Z,44.30
2022-11-29T00:15:06.028Z,45.03
2022-11-29T00:17:36.137Z,40.93
2022-11-29T00:20:19.053Z,42.93
2022-11-29T00:22:55.638Z,45.40
2022-11-29T00:25:26.529Z,42.50
2022-11-29T00:28:12.898Z,41.50
2022-11-29T00:30:43.508Z,37.50
2022-11-29T00:33:13.197Z,45.43
2022-11-29T00:35:42.580Z,46.40
2022-11-29T00:38:13.047Z,43.17
2022-11-29T00:40:42.568Z,41.53
2022-11-29T00:43:22.383Z,44.97
2022-11-29T00:46:01.901Z,41.33
2022-11-29T00:48:39.658Z,44.17
2022-11-29T00:51:21.819Z,46.20
2022-11-29T00:53:51.868Z,41.23
2022-11-29T00:56:33.947Z,46.73
2022-11-29T00:59:09.265Z,44.70
2022-11-29T01:01:47.741Z,47.30
2022-11-29T01:04:19.322Z,38.07
2022-11-29T01:06:49.893Z,42.27
2022-11-29T01:09:22.992Z,41.50
2022-11-29T01:11:51.470Z,42.90
2022-11-29T01:14:27.712Z,40.43
2022-11-29T01:17:00.411Z,36.40
2022-11-29T01:19:31.565Z,39.17
2022-11-29T01:22:10.109Z,38.60
2022-11-29T01:24:49.184Z,40.70
2022-11-29T01:27:25.783Z,41.97
2022-11-29T01:29:57.692Z,38.83
2022-11-29T01:32:28.607Z,43.03
2022-11-29T01:35:00.666Z,44.93
2022-11-29T01:37:34.274Z,34.50
2022-11-29T01:40:02.956Z,48.20
2022-11-29T01:42:39.456Z,37.50
2022-11-29T01:45:24.817Z,35.73
2022-11-29T01:48:07.473Z,34.30
2022-11-29T01:50:36.114Z,37.77
2022-11-29T01:53:12.681Z,40.53
2022-11-29T01:55:44.804Z,35.07
2022-11-29T01:58:26.613Z,34.33
2022-11-29T02:01:04.468Z,34.37
2022-11-29T02:03:37.365Z,34.23
2022-11-29T02:06:06.662Z,32.50
2022-11-29T02:08:44.805Z,34.57
2022-11-29T02:11:38.220Z,34.27
2022-11-29T02:14:19.833Z,36.73
2022-11-29T02:17:01.011Z,34.73
2022-11-29T02:19:55.504Z,30.93
2022-11-29T02:22:32.003Z,38.90
2022-11-29T02:25:16.843Z,35.50
2022-11-29T02:28:41.225Z,37.17
2022-11-29T02:31:48.638Z,36.93
2022-11-29T02:34:37.464Z,34.70
2022-11-29T02:37:18.332Z,37.13
2022-11-29T02:40:37.922Z,40.60
2022-11-29T02:43:37.879Z,33.80
2022-11-29T02:46:26.874Z,38.70
2022-11-29T02:49:18.960Z,35.10
2022-11-29T02:51:55.516Z,41.00
2022-11-29T02:54:31.516Z,34.23
2022-11-29T02:57:04.367Z,41.20
2022-11-29T02:59:57.373Z,35.87
2022-11-29T03:02:34.421Z,38.20
2022-11-29T03:05:16.918Z,36.20
2022-11-29T03:07:57.206Z,41.90
2022-11-29T03:10:35.193Z,39.63
2022-11-29T03:13:06.690Z,37.13
2022-11-29T03:15:43.021Z,38.13
2022-11-29T03:18:31.356Z,40.20
2022-11-29T03:21:12.215Z,40.17
2022-11-29T03:23:48.997Z,33.63
2022-11-29T03:26:27.352Z,35.60
2022-11-29T03:29:03.823Z,37.90
2022-11-29T03:34:28.547Z,42.10
2022-11-29T03:37:05.491Z,34.33
2022-11-29T03:39:57.835Z,37.97
2022-11-29T03:42:39.839Z,40.13
2022-11-29T03:45:17.207Z,35.70
2022-11-29T03:48:00.320Z,35.87
2022-11-29T03:50:39.813Z,41.60
2022-11-29T03:53:17.681Z,34.80
2022-11-29T03:56:27.539Z,36.67
2022-11-29T03:59:10.863Z,34.30
2022-11-29T04:02:07.157Z,34.87
2022-11-29T04:05:12.817Z,38.87
2022-11-29T04:07:54.859Z,36.30
2022-11-29T04:10:47.869Z,32.87
2022-11-29T04:13:41.906Z,38.23
2022-11-29T04:16:41.404Z,36.23
2022-11-29T04:19:51.942Z,37.67
2022-11-29T04:22:47.524Z,36.97
2022-11-29T04:25:44.095Z,45.40
2022-11-29T04:28:45.538Z,43.67
2022-11-29T04:31:28.800Z,40.77
2022-11-29T04:34:29.444Z,37.73
2022-11-29T04:37:21.201Z,37.33
2022-11-29T04:40:14.962Z,36.97
2022-11-29T04:43:19.122Z,40.73
2022-11-29T04:46:28.610Z,38.50
2022-11-29T04:49:28.554Z,41.83
2022-11-29T04:52:12.833Z,38.83
2022-11-29T04:54:49.134Z,42.93
2022-11-29T04:57:27.431Z,38.50
2022-11-29T05:00:08.596Z,41.97
2022-11-29T05:02:47.894Z,48.80
2022-11-29T05:05:25.660Z,42.07
2022-11-29T05:08:05.262Z,45.17
2022-11-29T05:10:39.526Z,47.50
2022-11-29T05:13:16.405Z,49.70
2022-11-29T05:15:57.653Z,44.17
2022-11-29T05:18:39.578Z,52.30
2022-11-29T05:21:20.505Z,43.80
2022-11-29T05:24:01.714Z,42.33
2022-11-29T05:26:38.731Z,46.40
2022-11-29T05:29:19.746Z,48.73
2022-11-29T05:32:13.893Z,53.93
2022-11-29T05:34:59.116Z,49.97
2022-11-29T05:37:43.610Z,50.00
2022-11-29T05:40:52.854Z,45.17
2022-11-29T05:44:08.656Z,46.03
2022-11-29T05:46:55.383Z,50.33
2022-11-29T05:49:33.853Z,50.20
2022-11-29T05:52:20.897Z,45.23
2022-11-29T05:55:16.769Z,47.80
2022-11-29T05:57:53.710Z,48.67
2022-11-29T06:00:33.153Z,48.77
2022-11-29T06:03:10.868Z,51.77
2022-11-29T06:05:45.918Z,48.57
2022-11-29T06:08:27.046Z,46.73
2022-11-29T06:11:17.123Z,45.53
2022-11-29T06:13:54.667Z,47.60
2022-11-29T06:20:09.232Z,42.80
2022-11-29T06:23:01.561Z,48.57
2022-11-29T06:25:51.644Z,46.23
2022-11-29T06:28:40.872Z,45.10
2022-11-29T06:31:16.891Z,48.43
2022-11-29T06:33:51.968Z,45.93
2022-11-29T06:36:25.170Z,45.40
2022-11-29T06:38:58.616Z,43.63
2022-11-29T06:41:44.437Z,51.13
2022-11-29T06:44:15.616Z,49.67
2022-11-29T06:46:58.911Z,47.23
2022-11-29T06:49:35.221Z,42.00
2022-11-29T06:52:25.293Z,43.17
2022-11-29T06:55:18.941Z,44.23
2022-11-29T06:58:04.168Z,46.83
2022-11-29T07:00:45.654Z,49.90
2022-11-29T07:03:34.205Z,44.93
2022-11-29T07:06:12.275Z,41.20
2022-11-29T07:08:44.660Z,43.43
2022-11-29T07:11:24.858Z,38.83
2022-11-29T07:14:02.768Z,41.43
2022-11-29T07:16:40.677Z,43.30
2022-11-29T07:19:17.196Z,40.40
2022-11-29T07:21:56.606Z,45.60
2022-11-29T07:24:42.936Z,46.10
2022-11-29T07:27:22.094Z,47.00
2022-11-29T07:30:10.362Z,43.30
2022-11-29T07:32:58.758Z,46.77
2022-11-29T07:35:46.409Z,39.90
2022-11-29T07:38:24.991Z,46.80
2022-11-29T07:40:57.012Z,37.83
2022-11-29T07:43:40.438Z,43.43
2022-11-29T07:46:11.116Z,46.77
2022-11-29T07:48:44.164Z,39.40
2022-11-29T07:51:21.931Z,37.10
2022-11-29T07:53:50.325Z,40.90
2022-11-29T07:56:27.981Z,40.57
2022-11-29T07:58:56.104Z,39.70
2022-11-29T08:01:25.397Z,45.27
2022-11-29T08:04:01.127Z,42.10
2022-11-29T08:06:33.288Z,40.40
2022-11-29T08:09:03.788Z,41.97
2022-11-29T08:11:33.139Z,38.73
2022-11-29T08:14:03.992Z,38.60
2022-11-29T08:16:32.266Z,40.57
2022-11-29T08:19:09.606Z,40.30
2022-11-29T08:21:48.560Z,41.07
2022-11-29T08:24:28.853Z,38.40
2022-11-29T08:26:58.693Z,42.97
2022-11-29T08:29:29.924Z,43.07
2022-11-29T08:32:13.997Z,36.77
2022-11-29T08:34:46.091Z,40.70
2022-11-29T08:37:14.866Z,38.93
2022-11-29T08:39:51.823Z,39.50
2022-11-29T08:42:32.062Z,41.70
2022-11-29T08:45:09.834Z,39.40
2022-11-29T08:47:50.336Z,35.97
2022-11-29T08:50:23.418Z,40.80
2022-11-29T08:53:11.687Z,36.87
2022-11-29T08:55:46.830Z,33.50
2022-11-29T08:58:27.655Z,35.03
2022-11-29T09:01:04.953Z,33.00
2022-11-29T09:03:54.307Z,33.00
2022-11-29T09:06:34.818Z,33.63
2022-11-29T09:09:03.345Z,34.63
2022-11-29T09:11:34.573Z,36.20
2022-11-29T09:14:11.058Z,38.97
2022-11-29T09:16:42.013Z,34.70
2022-11-29T09:19:10.534Z,34.13
2022-11-29T09:21:55.082Z,36.20
2022-11-29T09:24:23.152Z,36.03
2022-11-29T09:26:53.087Z,35.17
2022-11-29T09:29:35.088Z,37.67
2022-11-29T09:32:13.033Z,35.80
2022-11-29T09:34:42.581Z,31.80
2022-11-29T09:37:17.318Z,33.00
2022-11-29T09:39:48.739Z,34.00
2022-11-29T09:42:40.118Z,34.33
2022-11-29T09:45:12.174Z,33.87
2022-11-29T09:48:30.048Z,32.80
2022-11-29T09:51:08.158Z,35.13
2022-11-29T09:54:11.025Z,33.30
2022-11-29T09:56:43.764Z,31.10
2022-11-29T09:59:20.510Z,33.60
2022-11-29T10:01:54.659Z,31.97
2022-11-29T10:04:29.052Z,33.40
2022-11-29T10:07:06.943Z,29.17
2022-11-29T10:09:57.561Z,30.33
2022-11-29T10:12:35.986Z,36.80
2022-11-29T10:15:12.128Z,44.03
2022-11-29T10:17:50.761Z,30.70
2022-11-29T10:20:20.596Z,28.53
2022-11-29T10:22:53.591Z,38.10
2022-11-29T10:25:26.813Z,34.60
2022-11-29T10:27:55.420Z,32.67
2022-11-29T10:30:23.797Z,30.63
2022-11-29T10:32:57.264Z,36.37
2022-11-29T10:35:25.363Z,33.07
2022-11-29T10:38:22.639Z,31.50
2022-11-29T10:40:49.014Z,34.87
2022-11-29T10:43:17.416Z,35.07
2022-11-29T10:45:50.647Z,32.77
2022-11-29T10:48:20.211Z,36.10
2022-11-29T10:50:50.662Z,31.90
2022-11-29T10:53:21.197Z,36.80
2022-11-29T10:55:54.405Z,33.60
2022-11-29T10:58:28.017Z,32.70
2022-11-29T11:00:57.995Z,27.67
2022-11-29T11:03:29.896Z,29.27
2022-11-29T11:06:03.732Z,30.93
2022-11-29T11:08:32.670Z,30.13
2022-11-29T11:11:04.462Z,30.00
2022-11-29T11:13:33.636Z,30.73
2022-11-29T11:16:11.282Z,30.40
2022-11-29T11:18:39.519Z,30.73
2022-11-29T11:21:10.629Z,29.37
2022-11-29T11:23:55.804Z,29.93
2022-11-29T11:26:37.750Z,35.80
2022-11-29T11:29:07.820Z,32.03
2022-11-29T11:31:48.699Z,31.93
2022-11-29T11:34:38.105Z,33.30
2022-11-29T11:37:30.124Z,34.07
2022-11-29T11:40:01.581Z,31.30
2022-11-29T11:42:48.365Z,31.37
2022-11-29T11:45:31.228Z,28.03
2022-11-29T11:48:05.942Z,31.57
2022-11-29T11:50:42.037Z,27.80
2022-11-29T11:53:28.214Z,32.20
2022-11-29T11:56:20.943Z,35.97
2022-11-29T11:59:10.569Z,34.67
2022-11-29T12:04:25.765Z,29.40
2022-11-29T12:07:07.551Z,32.20
2022-11-29T12:09:43.369Z,30.07
2022-11-29T12:12:19.080Z,32.63
2022-11-29T12:15:03.268Z,31.33
2022-11-29T12:17:41.851Z,35.57
2022-11-29T12:20:18.287Z,30.50
2022-11-29T12:22:52.920Z,33.53
2022-11-29T12:25:23.892Z,32.93
2022-11-29T12:27:55.200Z,27.63
2022-11-29T12:30:24.711Z,29.30
2022-11-29T12:33:01.737Z,30.90
2022-11-29T12:35:39.612Z,25.93
2022-11-29T12:38:13.906Z,30.50
2022-11-29T12:40:49.788Z,27.23
2022-11-29T12:43:25.826Z,28.83
2022-11-29T12:46:02.267Z,29.40
2022-11-29T12:48:34.690Z,29.37
2022-11-29T12:51:09.449Z,26.70
2022-11-29T12:53:51.684Z,28.40
2022-11-29T12:56:25.972Z,25.70
2022-11-29T12:59:02.993Z,25.33
2022-11-29T13:01:37.841Z,23.63
2022-11-29T13:04:13.236Z,28.63
2022-11-29T13:06:46.669Z,23.43
2022-11-29T13:09:32.367Z,23.53
2022-11-29T13:12:04.633Z,21.97
2022-11-29T13:14:55.754Z,24.60
2022-11-29T13:17:33.669Z,26.53
2022-11-29T13:20:05.456Z,21.37
2022-11-29T13:22:37.086Z,27.60
2022-11-29T13:25:13.079Z,27.80
2022-11-29T13:27:47.922Z,29.70
2022-11-29T13:30:17.005Z,24.90
2022-11-29T13:32:51.539Z,23.37
2022-11-29T13:35:23.225Z,25.90
2022-11-29T13:37:55.638Z,25.30
2022-11-29T13:40:30.188Z,29.73
2022-11-29T13:43:02.412Z,22.23
2022-11-29T13:45:36.200Z,25.33
2022-11-29T13:48:27.868Z,27.63
2022-11-29T13:50:57.171Z,28.67
2022-11-29T13:53:27.185Z,25.30
2022-11-29T13:56:01.716Z,23.60
2022-11-29T13:58:37.826Z,20.93
2022-11-29T14:01:11.484Z,26.00
2022-11-29T14:03:42.076Z,22.93
2022-11-29T14:06:13.291Z,26.00
2022-11-29T14:09:18.343Z,25.20
2022-11-29T14:11:50.193Z,23.63
2022-11-29T14:14:26.008Z,28.80
2022-11-29T14:16:56.050Z,24.47
2022-11-29T14:19:33.487Z,27.60
2022-11-29T14:22:22.538Z,27.67
2022-11-29T14:25:08.156Z,32.07
2022-11-29T14:27:59.872Z,34.07
2022-11-29T14:30:55.851Z,30.13
2022-11-29T14:33:40.156Z,34.27
2022-11-29T14:36:25.633Z,34.23
2022-11-29T14:39:00.146Z,34.00
2022-11-29T14:41:33.609Z,34.73
2022-11-29T14:44:07.192Z,34.03
2022-11-29T14:46:35.299Z,32.07
2022-11-29T14:49:04.731Z,32.27
2022-11-29T14:51:35.139Z,29.60
2022-11-29T14:54:07.482Z,32.83
2022-11-29T14:56:42.712Z,35.13
2022-11-29T14:59:56.540Z,33.40
2022-11-29T15:02:33.926Z,34.53
2022-11-29T15:05:14.350Z,34.13
2022-11-29T15:07:46.745Z,33.80
2022-11-29T15:10:19.882Z,36.50
2022-11-29T15:12:48.784Z,34.07
2022-11-29T15:15:45.137Z,31.27
2022-11-29T15:18:23.707Z,37.70
2022-11-29T15:21:01.651Z,31.83
2022-11-29T15:23:40.934Z,32.23
2022-11-29T15:26:16.041Z,33.60
2022-11-29T15:28:44.181Z,35.17
2022-11-29T15:31:14.777Z,34.20
2022-11-29T15:33:44.875Z,35.27
2022-11-29T15:36:18.528Z,39.00
2022-11-29T15:38:50.273Z,34.10
2022-11-29T15:41:23.325Z,32.00
2022-11-29T15:43:54.522Z,31.27
2022-11-29T15:46:25.549Z,33.87
2022-11-29T15:48:53.673Z,36.03
2022-11-29T15:51:28.173Z,33.37
2022-11-29T15:54:12.096Z,36.80
2022-11-29T15:56:44.986Z,35.80
2022-11-29T15:59:18.096Z,32.30
2022-11-29T16:01:47.850Z,35.80
2022-11-29T16:04:19.106Z,34.93
2022-11-29T16:06:48.063Z,38.90
2022-11-29T16:09:19.422Z,36.20
2022-11-29T16:11:48.227Z,36.20
2022-11-29T16:14:19.856Z,36.97
2022-11-29T16:16:49.680Z,38.00
2022-11-29T16:19:24.259Z,33.90
2022-11-29T16:22:13.703Z,37.90
2022-11-29T16:24:52.721Z,37.80
2022-11-29T16:27:22.099Z,40.00
2022-11-29T16:29:52.139Z,37.97
2022-11-29T16:32:27.500Z,40.00
2022-11-29T16:34:57.538Z,40.57
2022-11-29T16:37:27.329Z,37.10
2022-11-29T16:40:01.724Z,35.93
2022-11-29T16:42:31.961Z,35.90
2022-11-29T16:45:31.817Z,38.27
2022-11-29T16:48:02.921Z,40.27
2022-11-29T16:50:31.957Z,42.63
2022-11-29T16:53:34.326Z,38.90
2022-11-29T16:56:04.832Z,39.50
2022-11-29T16:58:38.736Z,40.33
2022-11-29T17:01:18.617Z,38.10
2022-11-29T17:03:48.897Z,40.77
2022-11-29T17:06:20.314Z,41.33
2022-11-29T17:08:49.155Z,39.03
2022-11-29T17:11:19.999Z,38.07
2022-11-29T17:13:48.729Z,40.50
2022-11-29T17:16:18.540Z,41.33
2022-11-29T17:18:47.081Z,42.30
2022-11-29T17:21:19.654Z,37.80
2022-11-29T17:23:49.137Z,42.80
2022-11-29T17:26:21.640Z,41.83
2022-11-29T17:28:51.697Z,41.73
2022-11-29T17:31:24.064Z,36.70
2022-11-29T17:33:52.667Z,43.17
2022-11-29T17:36:22.742Z,39.70
2022-11-29T17:38:52.005Z,36.20
2022-11-29T17:41:23.093Z,40.07
2022-11-29T17:43:52.209Z,37.90
2022-11-29T17:46:23.077Z,40.47
2022-11-29T17:48:53.446Z,40.83
2022-11-29T17:54:13.437Z,40.53
2022-11-29T17:56:45.872Z,41.27
2022-11-29T17:59:15.977Z,42.80
2022-11-29T18:01:47.488Z,42.83
2022-11-29T18:04:18.144Z,41.17
2022-11-29T18:06:50.430Z,43.50
2022-11-29T18:09:21.875Z,40.80
2022-11-29T18:11:52.916Z,41.90
2022-11-29T18:14:24.300Z,39.93
2022-11-29T18:16:53.854Z,42.43
2022-11-29T18:19:24.013Z,46.43
2022-11-29T18:21:55.137Z,41.53
2022-11-29T18:24:23.854Z,43.43
2022-11-29T18:26:56.261Z,44.57
2022-11-29T18:29:32.779Z,39.30
2022-11-29T18:32:08.397Z,38.87
2022-11-29T18:34:38.986Z,42.63
2022-11-29T18:37:14.085Z,42.53
2022-11-29T18:39:47.432Z,43.47
2022-11-29T18:42:18.191Z,37.90
2022-11-29T18:44:47.997Z,41.40
2022-11-29T18:47:18.089Z,44.80
2022-11-29T18:49:48.665Z,41.40
2022-11-29T18:52:18.961Z,42.97
2022-11-29T18:54:48.748Z,41.53
2022-11-29T18:57:19.900Z,43.57
2022-11-29T18:59:50.434Z,41.37
2022-11-29T19:02:31.369Z,40.33
2022-11-29T19:05:07.859Z,45.27
2022-11-29T19:07:53.415Z,41.10
2022-11-29T19:10:36.336Z,43.00
2022-11-29T19:13:22.133Z,39.07
2022-11-29T19:16:05.968Z,44.47
2022-11-29T19:18:42.469Z,39.77
2022-11-29T19:21:28.402Z,44.03
2022-11-29T19:24:16.019Z,36.53
2022-11-29T19:27:03.147Z,43.00
2022-11-29T19:29:40.210Z,39.87
2022-11-29T19:32:20.580Z,40.40
2022-11-29T19:35:17.842Z,45.27
2022-11-29T19:37:54.266Z,44.20
2022-11-29T19:40:25.959Z,40.30
2022-11-29T19:43:06.904Z,42.23
2022-11-29T19:45:44.844Z,36.03
2022-11-29T19:48:20.720Z,35.93
2022-11-29T19:51:04.959Z,40.97
2022-11-29T19:53:57.414Z,39.77
2022-11-29T19:56:35.451Z,39.83
2022-11-29T19:59:17.213Z,39.93
2022-11-29T20:02:01.977Z,45.37
2022-11-29T20:04:42.246Z,40.00
2022-11-29T20:07:14.751Z,39.47
2022-11-29T20:09:47.045Z,42.43
2022-11-29T20:12:23.628Z,40.50
2022-11-29T20:15:05.993Z,49.87
2022-11-29T20:17:43.869Z,36.23
2022-11-29T20:20:21.494Z,42.50
2022-11-29T20:23:12.344Z,45.20
2022-11-29T20:25:45.149Z,46.10
2022-11-29T20:28:20.147Z,42.73
2022-11-29T20:30:59.975Z,47.70
2022-11-29T20:33:46.940Z,44.33
2022-11-29T20:36:44.874Z,44.73
2022-11-29T20:39:33.085Z,47.53
2022-11-29T20:42:29.036Z,49.20
2022-11-29T20:45:11.494Z,44.20
2022-11-29T20:47:52.030Z,43.93
2022-11-29T20:50:31.610Z,50.03
2022-11-29T20:53:25.111Z,47.87
2022-11-29T20:56:00.186Z,45.40
2022-11-29T20:58:39.291Z,50.13
2022-11-29T21:01:31.071Z,46.77
2022-11-29T21:04:02.244Z,49.33
2022-11-29T21:06:44.330Z,47.70
2022-11-29T21:09:19.706Z,49.50
2022-11-29T21:11:54.096Z,51.13
2022-11-29T21:14:37.216Z,49.10
2022-11-29T21:17:09.319Z,50.53
2022-11-29T21:19:49.695Z,53.47
2022-11-29T21:22:34.839Z,49.63
2022-11-29T21:25:12.207Z,46.20
2022-11-29T21:27:43.981Z,48.80
2022-11-29T21:30:23.340Z,51.23
2022-11-29T21:32:54.127Z,50.70
2022-11-29T21:35:24.692Z,50.83
2022-11-29T21:38:04.084Z,51.63
2022-11-29T21:40:34.396Z,50.63
2022-11-29T21:43:05.720Z,52.97
2022-11-29T21:45:42.051Z,51.00
2022-11-29T21:48:27.810Z,53.10
2022-11-29T21:51:00.041Z,53.90
2022-11-29T21:53:35.470Z,49.87
2022-11-29T21:56:08.253Z,55.13
2022-11-29T21:58:40.814Z,48.27
2022-11-29T22:01:24.356Z,49.60
2022-11-29T22:03:55.474Z,54.80
2022-11-29T22:06:35.659Z,50.23
2022-11-29T22:09:09.777Z,54.83
2022-11-29T22:11:38.445Z,49.90
2022-11-29T22:14:23.854Z,50.07
2022-11-29T22:17:04.950Z,51.27
2022-11-29T22:19:39.669Z,55.73
2022-11-29T22:22:20.025Z,55.17
2022-11-29T22:24:52.819Z,60.40
2022-11-29T22:27:24.013Z,57.23
2022-11-29T22:30:00.223Z,47.63
2022-11-29T22:32:31.080Z,56.63
2022-11-29T22:35:00.028Z,58.60
2022-11-29T22:37:31.160Z,52.53
2022-11-29T22:40:08.542Z,57.83
2022-11-29T22:42:43.646Z,51.13
2022-11-29T22:45:24.444Z,52.57
2022-11-29T22:47:54.212Z,54.00
2022-11-29T22:50:24.926Z,57.50
2022-11-29T22:52:55.598Z,59.23
2022-11-29T22:55:31.333Z,61.33
2022-11-29T22:58:09.178Z,58.93
2022-11-29T23:00:44.946Z,59.40
2022-11-29T23:03:18.229Z,55.33
2022-11-29T23:05:48.879Z,58.73
2022-11-29T23:08:18.624Z,56.00
2022-11-29T23:10:57.210Z,55.20
2022-11-29T23:13:28.027Z,60.70
2022-11-29T23:16:03.943Z,54.80
2022-11-29T23:18:42.273Z,52.20
2022-11-29T23:21:13.995Z,61.00
2022-11-29T23:23:42.336Z,53.50
2022-11-29T23:26:19.194Z,54.60
2022-11-29T23:28:55.581Z,53.40
2022-11-29T23:31:26.666Z,60.60
2022-11-29T23:33:57.027Z,60.67
2022-11-29T23:36:29.422Z,52.87
2022-11-29T23:39:08.713Z,58.27
2022-11-29T23:41:45.792Z,51.20
2022-11-29T23:44:19.487Z,50.50
2022-11-29T23:46:48.219Z,52.37
2022-11-29T23:49:25.562Z,53.87
2022-11-29T23:51:57.703Z,60.00
2022-11-29T23:54:28.494Z,53.90
2022-11-29T23:56:58.324Z,55.70
2022-11-29T23:59:27.040Z,49.70
